sensor_id;sensor_type;location;lat;lon;timestamp;pressure;altitude;pressure_sealevel;temperature
75773;BMP280;64381;0.000;0.000;2023-02-28T00:00:18;95779.13;;;18.56
75773;BMP280;64381;0.000;0.000;2023-02-28T00:02:44;95773.63;;;18.56
75773;BMP280;64381;0.000;0.000;2023-02-28T00:05:12;95776.19;;;18.54
75773;BMP280;64381;0.000;0.000;2023-02-28T00:07:37;95771.94;;;18.53
75773;BMP280;64381;0.000;0.000;2023-02-28T00:10:07;95778.19;;;18.54
75773;BMP280;64381;0.000;0.000;2023-02-28T00:12:34;95770.66;;;18.54
75773;BMP280;64381;0.000;0.000;2023-02-28T00:14:59;95773.94;;;18.53
75773;BMP280;64381;0.000;0.000;2023-02-28T00:17:25;95764.19;;;18.52
75773;BMP280;64381;0.000;0.000;2023-02-28T00:19:51;95766.97;;;18.52
75773;BMP280;64381;0.000;0.000;2023-02-28T00:22:21;95764.94;;;18.52
75773;BMP280;64381;0.000;0.000;2023-02-28T00:24:46;95764.75;;;18.50
75773;BMP280;64381;0.000;0.000;2023-02-28T00:27:12;95763.25;;;18.49
75773;BMP280;64381;0.000;0.000;2023-02-28T00:29:37;95760.88;;;18.46
75773;BMP280;64381;0.000;0.000;2023-02-28T00:32:03;95756.25;;;18.48
75773;BMP280;64381;0.000;0.000;2023-02-28T00:34:28;95758.28;;;18.48
75773;BMP280;64381;0.000;0.000;2023-02-28T00:36:53;95759.00;;;18.48
75773;BMP280;64381;0.000;0.000;2023-02-28T00:39:19;95752.00;;;18.47
75773;BMP280;64381;0.000;0.000;2023-02-28T00:41:44;95751.84;;;18.45
75773;BMP280;64381;0.000;0.000;2023-02-28T00:44:09;95755.34;;;18.46
75773;BMP280;64381;0.000;0.000;2023-02-28T00:46:34;95757.38;;;18.45
75773;BMP280;64381;0.000;0.000;2023-02-28T00:48:59;95753.31;;;18.46
75773;BMP280;64381;0.000;0.000;2023-02-28T00:51:25;95749.25;;;18.47
75773;BMP280;64381;0.000;0.000;2023-02-28T00:53:50;95755.34;;;18.46
75773;BMP280;64381;0.000;0.000;2023-02-28T00:56:15;95753.84;;;18.44
75773;BMP280;64381;0.000;0.000;2023-02-28T00:58:40;95756.63;;;18.44
75773;BMP280;64381;0.000;0.000;2023-02-28T01:01:06;95751.09;;;18.44
75773;BMP280;64381;0.000;0.000;2023-02-28T01:03:31;95755.88;;;18.44
75773;BMP280;64381;0.000;0.000;2023-02-28T01:05:56;95755.88;;;18.44
75773;BMP280;64381;0.000;0.000;2023-02-28T01:08:22;95749.59;;;18.43
75773;BMP280;64381;0.000;0.000;2023-02-28T01:10:48;95747.59;;;18.44
75773;BMP280;64381;0.000;0.000;2023-02-28T01:13:13;95746.09;;;18.43
75773;BMP280;64381;0.000;0.000;2023-02-28T01:15:42;95746.84;;;18.43
75773;BMP280;64381;0.000;0.000;2023-02-28T01:18:08;95743.34;;;18.43
75773;BMP280;64381;0.000;0.000;2023-02-28T01:20:36;95743.34;;;18.43
75773;BMP280;64381;0.000;0.000;2023-02-28T01:23:01;95742.59;;;18.42
75773;BMP280;64381;0.000;0.000;2023-02-28T01:25:26;95736.31;;;18.42
75773;BMP280;64381;0.000;0.000;2023-02-28T01:27:52;95731.53;;;18.42
75773;BMP280;64381;0.000;0.000;2023-02-28T01:30:17;95732.28;;;18.43
75773;BMP280;64381;0.000;0.000;2023-02-28T01:32:42;95734.88;;;18.41
75773;BMP280;64381;0.000;0.000;2023-02-28T01:35:08;95728.03;;;18.42
75773;BMP280;64381;0.000;0.000;2023-02-28T01:37:33;95731.53;;;18.42
75773;BMP280;64381;0.000;0.000;2023-02-28T01:39:58;95729.34;;;18.41
75773;BMP280;64381;0.000;0.000;2023-02-28T01:42:23;95724.56;;;18.41
75773;BMP280;64381;0.000;0.000;2023-02-28T01:45:06;95721.25;;;18.43
75773;BMP280;64381;0.000;0.000;2023-02-28T01:47:42;95725.09;;;18.40
75773;BMP280;64381;0.000;0.000;2023-02-28T01:50:12;95721.81;;;18.41
75773;BMP280;64381;0.000;0.000;2023-02-28T01:52:39;95723.81;;;18.41
75773;BMP280;64381;0.000;0.000;2023-02-28T01:55:07;95721.06;;;18.41
75773;BMP280;64381;0.000;0.000;2023-02-28T01:57:45;95723.25;;;18.42
75773;BMP280;64381;0.000;0.000;2023-02-28T02:00:14;95721.81;;;18.41
75773;BMP280;64381;0.000;0.000;2023-02-28T02:02:41;95719.75;;;18.42
75773;BMP280;64381;0.000;0.000;2023-02-28T02:05:11;95716.28;;;18.41
75773;BMP280;64381;0.000;0.000;2023-02-28T02:07:42;95711.28;;;18.40
75773;BMP280;64381;0.000;0.000;2023-02-28T02:15:40;95714.78;;;18.40
75773;BMP280;64381;0.000;0.000;2023-02-28T02:18:26;95711.28;;;18.40
75773;BMP280;64381;0.000;0.000;2023-02-28T02:21:51;95722.34;;;18.40
75773;BMP280;64381;0.000;0.000;2023-02-28T02:29:58;95712.59;;;18.39
75773;BMP280;64381;0.000;0.000;2023-02-28T02:37:56;95698.78;;;18.39
75773;BMP280;64381;0.000;0.000;2023-02-28T02:40:29;95705.00;;;18.39
75773;BMP280;64381;0.000;0.000;2023-02-28T02:43:00;95703.00;;;18.40
75773;BMP280;64381;0.000;0.000;2023-02-28T02:45:49;95704.50;;;18.41
75773;BMP280;64381;0.000;0.000;2023-02-28T02:48:18;95701.53;;;18.39
75773;BMP280;64381;0.000;0.000;2023-02-28T02:51:06;95700.22;;;18.40
75773;BMP280;64381;0.000;0.000;2023-02-28T02:53:36;95694.53;;;18.38
75773;BMP280;64381;0.000;0.000;2023-02-28T02:56:03;95700.78;;;18.38
75773;BMP280;64381;0.000;0.000;2023-02-28T02:58:33;95697.47;;;18.40
75773;BMP280;64381;0.000;0.000;2023-02-28T03:01:01;95691.22;;;18.39
75773;BMP280;64381;0.000;0.000;2023-02-28T03:03:28;95688.44;;;18.39
75773;BMP280;64381;0.000;0.000;2023-02-28T03:05:56;95691.22;;;18.39
75773;BMP280;64381;0.000;0.000;2023-02-28T03:08:22;95686.25;;;18.38
75773;BMP280;64381;0.000;0.000;2023-02-28T03:10:52;95691.94;;;18.40
75773;BMP280;64381;0.000;0.000;2023-02-28T03:16:25;95687.72;;;18.39
75773;BMP280;64381;0.000;0.000;2023-02-28T03:21:52;95697.47;;;18.40
75773;BMP280;64381;0.000;0.000;2023-02-28T03:24:43;95698.78;;;18.39
75773;BMP280;64381;0.000;0.000;2023-02-28T03:27:29;95698.03;;;18.38
75773;BMP280;64381;0.000;0.000;2023-02-28T03:30:10;95691.22;;;18.39
75773;BMP280;64381;0.000;0.000;2023-02-28T03:32:47;95703.56;;;18.38
75773;BMP280;64381;0.000;0.000;2023-02-28T03:35:19;95708.34;;;18.38
75773;BMP280;64381;0.000;0.000;2023-02-28T03:37:46;95695.28;;;18.38
75773;BMP280;64381;0.000;0.000;2023-02-28T03:40:15;95697.28;;;18.38
75773;BMP280;64381;0.000;0.000;2023-02-28T03:42:45;95694.53;;;18.38
75773;BMP280;64381;0.000;0.000;2023-02-28T03:45:21;95693.97;;;18.39
75773;BMP280;64381;0.000;0.000;2023-02-28T03:48:00;95699.50;;;18.39
75773;BMP280;64381;0.000;0.000;2023-02-28T03:50:42;95704.28;;;18.39
75773;BMP280;64381;0.000;0.000;2023-02-28T03:53:16;95698.78;;;18.39
75773;BMP280;64381;0.000;0.000;2023-02-28T03:55:45;95709.81;;;18.39
75773;BMP280;64381;0.000;0.000;2023-02-28T03:58:43;95714.03;;;18.40
75773;BMP280;64381;0.000;0.000;2023-02-28T04:01:13;95713.09;;;18.37
75773;BMP280;64381;0.000;0.000;2023-02-28T04:03:40;95711.66;;;18.36
75773;BMP280;64381;0.000;0.000;2023-02-28T04:06:15;95718.09;;;18.39
75773;BMP280;64381;0.000;0.000;2023-02-28T04:08:42;95716.44;;;18.36
75773;BMP280;64381;0.000;0.000;2023-02-28T04:13:40;95733.75;;;18.36
75773;BMP280;64381;0.000;0.000;2023-02-28T04:16:08;95729.16;;;18.39
75773;BMP280;64381;0.000;0.000;2023-02-28T04:18:34;95727.66;;;18.38
75773;BMP280;64381;0.000;0.000;2023-02-28T04:21:00;95728.97;;;18.37
75773;BMP280;64381;0.000;0.000;2023-02-28T04:23:25;95733.19;;;18.38
75773;BMP280;64381;0.000;0.000;2023-02-28T04:25:54;95735.94;;;18.38
75773;BMP280;64381;0.000;0.000;2023-02-28T04:28:20;95736.50;;;18.36
75773;BMP280;64381;0.000;0.000;2023-02-28T04:30:45;95734.47;;;18.37
75773;BMP280;64381;0.000;0.000;2023-02-28T04:33:10;95733.75;;;18.36
75773;BMP280;64381;0.000;0.000;2023-02-28T04:35:35;95745.53;;;18.37
75773;BMP280;64381;0.000;0.000;2023-02-28T04:38:01;95735.19;;;18.37
75773;BMP280;64381;0.000;0.000;2023-02-28T04:40:26;95731.72;;;18.37
75773;BMP280;64381;0.000;0.000;2023-02-28T04:42:51;95733.19;;;18.38
75773;BMP280;64381;0.000;0.000;2023-02-28T04:45:16;95740.72;;;18.37
75773;BMP280;64381;0.000;0.000;2023-02-28T04:47:41;95735.94;;;18.38
75773;BMP280;64381;0.000;0.000;2023-02-28T04:50:07;95737.97;;;18.37
75773;BMP280;64381;0.000;0.000;2023-02-28T04:52:33;95744.03;;;18.36
75773;BMP280;64381;0.000;0.000;2023-02-28T04:54:58;95737.25;;;18.37
75773;BMP280;64381;0.000;0.000;2023-02-28T04:57:23;95739.47;;;18.38
75773;BMP280;64381;0.000;0.000;2023-02-28T04:59:48;95744.97;;;18.38
75773;BMP280;64381;0.000;0.000;2023-02-28T05:02:13;95746.25;;;18.37
75773;BMP280;64381;0.000;0.000;2023-02-28T05:04:39;95747.75;;;18.38
75773;BMP280;64381;0.000;0.000;2023-02-28T05:07:04;95754.72;;;18.39
75773;BMP280;64381;0.000;0.000;2023-02-28T05:09:29;95757.47;;;18.39
75773;BMP280;64381;0.000;0.000;2023-02-28T05:11:55;95758.03;;;18.38
75773;BMP280;64381;0.000;0.000;2023-02-28T05:14:20;95756.03;;;18.38
75773;BMP280;64381;0.000;0.000;2023-02-28T05:16:46;95763.56;;;18.38
75773;BMP280;64381;0.000;0.000;2023-02-28T05:19:11;95758.03;;;18.38
75773;BMP280;64381;0.000;0.000;2023-02-28T05:21:37;95757.47;;;18.39
75773;BMP280;64381;0.000;0.000;2023-02-28T05:24:09;95762.28;;;18.39
75773;BMP280;64381;0.000;0.000;2023-02-28T05:26:36;95760.06;;;18.37
75773;BMP280;64381;0.000;0.000;2023-02-28T05:29:02;95759.53;;;18.39
75773;BMP280;64381;0.000;0.000;2023-02-28T05:31:27;95763.56;;;18.38
75773;BMP280;64381;0.000;0.000;2023-02-28T05:33:52;95768.34;;;18.37
75773;BMP280;64381;0.000;0.000;2023-02-28T05:36:18;95769.09;;;18.38
75773;BMP280;64381;0.000;0.000;2023-02-28T05:38:46;95767.81;;;18.39
75773;BMP280;64381;0.000;0.000;2023-02-28T05:41:11;95764.88;;;18.37
75773;BMP280;64381;0.000;0.000;2023-02-28T05:43:37;95758.59;;;18.36
75773;BMP280;64381;0.000;0.000;2023-02-28T05:46:07;95759.53;;;18.39
75773;BMP280;64381;0.000;0.000;2023-02-28T05:48:34;95765.06;;;18.39
75773;BMP280;64381;0.000;0.000;2023-02-28T05:50:59;95767.06;;;18.38
75773;BMP280;64381;0.000;0.000;2023-02-28T05:53:25;95765.06;;;18.39
75773;BMP280;64381;0.000;0.000;2023-02-28T05:55:50;95769.28;;;18.40
75773;BMP280;64381;0.000;0.000;2023-02-28T05:58:15;95771.28;;;18.39
75773;BMP280;64381;0.000;0.000;2023-02-28T06:00:40;95773.53;;;18.41
75773;BMP280;64381;0.000;0.000;2023-02-28T06:03:05;95772.03;;;18.40
75773;BMP280;64381;0.000;0.000;2023-02-28T06:05:31;95783.28;;;18.42
75773;BMP280;64381;0.000;0.000;2023-02-28T06:07:56;95778.50;;;18.42
75773;BMP280;64381;0.000;0.000;2023-02-28T06:10:21;95795.06;;;18.42
75773;BMP280;64381;0.000;0.000;2023-02-28T06:12:46;95783.84;;;18.40
75773;BMP280;64381;0.000;0.000;2023-02-28T06:15:13;95787.53;;;18.43
75773;BMP280;64381;0.000;0.000;2023-02-28T06:17:40;95793.59;;;18.41
75773;BMP280;64381;0.000;0.000;2023-02-28T06:20:06;95795.06;;;18.42
75773;BMP280;64381;0.000;0.000;2023-02-28T06:22:32;95791.38;;;18.40
75773;BMP280;64381;0.000;0.000;2023-02-28T06:24:57;95796.16;;;18.39
75773;BMP280;64381;0.000;0.000;2023-02-28T06:27:22;95794.13;;;18.40
75773;BMP280;64381;0.000;0.000;2023-02-28T06:29:47;95795.44;;;18.39
75773;BMP280;64381;0.000;0.000;2023-02-28T06:32:12;95790.63;;;18.39
75773;BMP280;64381;0.000;0.000;2023-02-28T06:34:38;95798.19;;;18.39
75773;BMP280;64381;0.000;0.000;2023-02-28T06:37:03;95796.16;;;18.39
75773;BMP280;64381;0.000;0.000;2023-02-28T06:39:29;95804.44;;;18.39
75773;BMP280;64381;0.000;0.000;2023-02-28T06:41:54;95816.78;;;18.38
75773;BMP280;64381;0.000;0.000;2023-02-28T06:44:20;95813.28;;;18.38
75773;BMP280;64381;0.000;0.000;2023-02-28T06:46:46;95814.75;;;18.39
75773;BMP280;64381;0.000;0.000;2023-02-28T06:49:12;95809.97;;;18.39
75773;BMP280;64381;0.000;0.000;2023-02-28T06:51:39;95812.72;;;18.39
75773;BMP280;64381;0.000;0.000;2023-02-28T06:54:05;95815.47;;;18.39
75773;BMP280;64381;0.000;0.000;2023-02-28T06:56:31;95821.94;;;18.42
75773;BMP280;64381;0.000;0.000;2023-02-28T06:58:56;95823.97;;;18.41
75773;BMP280;64381;0.000;0.000;2023-02-28T07:01:21;95824.69;;;18.42
75773;BMP280;64381;0.000;0.000;2023-02-28T07:03:47;95828.22;;;18.42
75773;BMP280;64381;0.000;0.000;2023-02-28T07:06:12;95834.28;;;18.41
75773;BMP280;64381;0.000;0.000;2023-02-28T07:08:37;95829.50;;;18.41
75773;BMP280;64381;0.000;0.000;2023-02-28T07:11:03;95834.47;;;18.43
75773;BMP280;64381;0.000;0.000;2023-02-28T07:13:29;95838.72;;;18.44
75773;BMP280;64381;0.000;0.000;2023-02-28T07:16:00;95843.16;;;18.47
75773;BMP280;64381;0.000;0.000;2023-02-28T07:18:25;95840.38;;;18.47
75773;BMP280;64381;0.000;0.000;2023-02-28T07:20:51;95836.56;;;18.50
75773;BMP280;64381;0.000;0.000;2023-02-28T07:23:17;95834.00;;;18.52
75773;BMP280;64381;0.000;0.000;2023-02-28T07:25:42;95831.44;;;18.54
75773;BMP280;64381;0.000;0.000;2023-02-28T07:28:07;95825.38;;;18.56
75773;BMP280;64381;0.000;0.000;2023-02-28T07:30:32;95838.09;;;18.59
75773;BMP280;64381;0.000;0.000;2023-02-28T07:32:58;95839.56;;;18.60
75773;BMP280;64381;0.000;0.000;2023-02-28T07:35:23;95839.78;;;18.62
75773;BMP280;64381;0.000;0.000;2023-02-28T07:37:48;95841.03;;;18.61
75773;BMP280;64381;0.000;0.000;2023-02-28T07:40:14;95844.03;;;18.63
75773;BMP280;64381;0.000;0.000;2023-02-28T07:42:41;95828.94;;;18.64
75773;BMP280;64381;0.000;0.000;2023-02-28T07:45:07;95833.16;;;18.65
75773;BMP280;64381;0.000;0.000;2023-02-28T07:47:33;95837.38;;;18.66
75773;BMP280;64381;0.000;0.000;2023-02-28T07:49:59;95832.59;;;18.66
75773;BMP280;64381;0.000;0.000;2023-02-28T07:52:24;95836.63;;;18.65
75773;BMP280;64381;0.000;0.000;2023-02-28T07:54:50;95833.16;;;18.65
75773;BMP280;64381;0.000;0.000;2023-02-28T07:57:15;95837.59;;;18.68
75773;BMP280;64381;0.000;0.000;2023-02-28T07:59:41;95841.63;;;18.67
75773;BMP280;64381;0.000;0.000;2023-02-28T08:02:06;95845.91;;;18.68
75773;BMP280;64381;0.000;0.000;2023-02-28T08:04:32;95847.38;;;18.69
75773;BMP280;64381;0.000;0.000;2023-02-28T08:06:58;95848.84;;;18.70
75773;BMP280;64381;0.000;0.000;2023-02-28T08:09:23;95847.38;;;18.69
75773;BMP280;64381;0.000;0.000;2023-02-28T08:11:49;95851.41;;;18.68
75773;BMP280;64381;0.000;0.000;2023-02-28T08:14:14;95855.88;;;18.71
75773;BMP280;64381;0.000;0.000;2023-02-28T08:16:39;95858.63;;;18.71
75773;BMP280;64381;0.000;0.000;2023-02-28T08:19:04;95856.41;;;18.69
75773;BMP280;64381;0.000;0.000;2023-02-28T08:21:30;95854.38;;;18.70
75773;BMP280;64381;0.000;0.000;2023-02-28T08:23:55;95862.84;;;18.72
75773;BMP280;64381;0.000;0.000;2023-02-28T08:26:20;95858.63;;;18.71
75773;BMP280;64381;0.000;0.000;2023-02-28T08:28:46;95856.41;;;18.69
75773;BMP280;64381;0.000;0.000;2023-02-28T08:31:13;95862.13;;;18.71
75773;BMP280;64381;0.000;0.000;2023-02-28T08:33:40;95855.88;;;18.71
75773;BMP280;64381;0.000;0.000;2023-02-28T08:36:06;95858.06;;;18.72
75773;BMP280;64381;0.000;0.000;2023-02-28T08:38:32;95861.56;;;18.73
75773;BMP280;64381;0.000;0.000;2023-02-28T08:41:03;95870.63;;;18.73
75773;BMP280;64381;0.000;0.000;2023-02-28T08:43:29;95868.38;;;18.72
75773;BMP280;64381;0.000;0.000;2023-02-28T08:45:55;95869.88;;;18.73
75773;BMP280;64381;0.000;0.000;2023-02-28T08:48:21;95877.41;;;18.72
75773;BMP280;64381;0.000;0.000;2023-02-28T08:53:25;95887.94;;;18.74
75773;BMP280;64381;0.000;0.000;2023-02-28T08:56:01;95877.59;;;18.74
75773;BMP280;64381;0.000;0.000;2023-02-28T08:58:27;95874.13;;;18.74
75773;BMP280;64381;0.000;0.000;2023-02-28T09:00:53;95882.41;;;18.74
75773;BMP280;64381;0.000;0.000;2023-02-28T09:03:18;95888.66;;;18.74
75773;BMP280;64381;0.000;0.000;2023-02-28T09:05:57;95889.41;;;18.75
75773;BMP280;64381;0.000;0.000;2023-02-28T09:08:24;95881.88;;;18.75
75773;BMP280;64381;0.000;0.000;2023-02-28T09:10:50;95885.91;;;18.74
75773;BMP280;64381;0.000;0.000;2023-02-28T09:13:15;95889.97;;;18.73
75773;BMP280;64381;0.000;0.000;2023-02-28T09:15:40;95892.72;;;18.73
75773;BMP280;64381;0.000;0.000;2023-02-28T09:18:06;95881.66;;;18.73
75773;BMP280;64381;0.000;0.000;2023-02-28T09:20:31;95890.47;;;18.72
75773;BMP280;64381;0.000;0.000;2023-02-28T09:22:56;95901.00;;;18.73
75773;BMP280;64381;0.000;0.000;2023-02-28T09:25:21;95895.28;;;18.71
75773;BMP280;64381;0.000;0.000;2023-02-28T09:27:46;95896.56;;;18.70
75773;BMP280;64381;0.000;0.000;2023-02-28T09:30:12;95905.78;;;18.73
75773;BMP280;64381;0.000;0.000;2023-02-28T09:32:37;95901.53;;;18.72
75773;BMP280;64381;0.000;0.000;2023-02-28T09:35:03;95911.31;;;18.73
75773;BMP280;64381;0.000;0.000;2023-02-28T09:37:28;95904.84;;;18.70
75773;BMP280;64381;0.000;0.000;2023-02-28T09:39:54;95914.09;;;18.73
75773;BMP280;64381;0.000;0.000;2023-02-28T09:42:23;95918.13;;;18.72
75773;BMP280;64381;0.000;0.000;2023-02-28T09:44:50;95921.63;;;18.72
75773;BMP280;64381;0.000;0.000;2023-02-28T09:49:47;95922.94;;;18.71
75773;BMP280;64381;0.000;0.000;2023-02-28T09:52:19;95922.38;;;18.73
75773;BMP280;64381;0.000;0.000;2023-02-28T09:54:45;95926.41;;;18.72
75773;BMP280;64381;0.000;0.000;2023-02-28T09:57:19;95924.94;;;18.71
75773;BMP280;64381;0.000;0.000;2023-02-28T10:00:01;95927.72;;;18.71
75773;BMP280;64381;0.000;0.000;2023-02-28T10:05:27;95931.75;;;18.70
75773;BMP280;64381;0.000;0.000;2023-02-28T10:13:05;95931.75;;;18.70
75773;BMP280;64381;0.000;0.000;2023-02-28T10:15:33;95932.47;;;18.70
75773;BMP280;64381;0.000;0.000;2023-02-28T10:18:03;95937.25;;;18.70
75773;BMP280;64381;0.000;0.000;2023-02-28T10:20:33;95938.75;;;18.71
75773;BMP280;64381;0.000;0.000;2023-02-28T10:23:04;95939.31;;;18.69
75773;BMP280;64381;0.000;0.000;2023-02-28T10:25:30;95936.56;;;18.69
75773;BMP280;64381;0.000;0.000;2023-02-28T10:28:13;95934.50;;;18.70
75773;BMP280;64381;0.000;0.000;2023-02-28T10:30:44;95931.75;;;18.70
75773;BMP280;64381;0.000;0.000;2023-02-28T10:35:52;95944.63;;;18.67
75773;BMP280;64381;0.000;0.000;2023-02-28T10:38:23;95955.16;;;18.69
75773;BMP280;64381;0.000;0.000;2023-02-28T10:40:50;95946.09;;;18.68
75773;BMP280;64381;0.000;0.000;2023-02-28T10:45:56;95944.09;;;18.69
75773;BMP280;64381;0.000;0.000;2023-02-28T10:56:00;95952.91;;;18.67
75773;BMP280;64381;0.000;0.000;2023-02-28T10:58:50;95961.19;;;18.67
75773;BMP280;64381;0.000;0.000;2023-02-28T11:01:15;95955.66;;;18.67
75773;BMP280;64381;0.000;0.000;2023-02-28T11:03:41;95963.97;;;18.67
75773;BMP280;64381;0.000;0.000;2023-02-28T11:06:13;95968.75;;;18.67
75773;BMP280;64381;0.000;0.000;2023-02-28T11:08:46;95958.44;;;18.67
75773;BMP280;64381;0.000;0.000;2023-02-28T11:11:11;95965.97;;;18.67
75773;BMP280;64381;0.000;0.000;2023-02-28T11:13:37;95952.69;;;18.65
75773;BMP280;64381;0.000;0.000;2023-02-28T11:16:05;95963.22;;;18.67
75773;BMP280;64381;0.000;0.000;2023-02-28T11:18:46;95957.16;;;18.68
75773;BMP280;64381;0.000;0.000;2023-02-28T11:21:19;95963.97;;;18.67
75773;BMP280;64381;0.000;0.000;2023-02-28T11:23:48;95964.47;;;18.66
75773;BMP280;64381;0.000;0.000;2023-02-28T11:26:14;95953.44;;;18.66
75773;BMP280;64381;0.000;0.000;2023-02-28T11:28:41;95950.88;;;18.68
75773;BMP280;64381;0.000;0.000;2023-02-28T11:33:42;95945.88;;;18.66
75773;BMP280;64381;0.000;0.000;2023-02-28T11:36:12;95942.59;;;18.68
75773;BMP280;64381;0.000;0.000;2023-02-28T11:38:38;95938.34;;;18.67
75773;BMP280;64381;0.000;0.000;2023-02-28T11:41:19;95944.63;;;18.67
75773;BMP280;64381;0.000;0.000;2023-02-28T11:46:52;95926.53;;;18.66
75773;BMP280;64381;0.000;0.000;2023-02-28T11:52:21;95925.28;;;18.67
75773;BMP280;64381;0.000;0.000;2023-02-28T11:57:59;95928.78;;;18.68
75773;BMP280;64381;0.000;0.000;2023-02-28T12:00:38;95924.34;;;18.65
75773;BMP280;64381;0.000;0.000;2023-02-28T12:19:27;95917.72;;;18.68
75773;BMP280;64381;0.000;0.000;2023-02-28T12:22:22;95916.97;;;18.67
75773;BMP280;64381;0.000;0.000;2023-02-28T12:27:48;95915.50;;;18.66
75773;BMP280;64381;0.000;0.000;2023-02-28T12:32:49;95903.91;;;18.68
75773;BMP280;64381;0.000;0.000;2023-02-28T12:35:33;95900.63;;;18.69
75773;BMP280;64381;0.000;0.000;2023-02-28T12:38:05;95894.34;;;18.69
75773;BMP280;64381;0.000;0.000;2023-02-28T12:40:43;95897.88;;;18.69
75773;BMP280;64381;0.000;0.000;2023-02-28T12:43:10;95894.34;;;18.69
75773;BMP280;64381;0.000;0.000;2023-02-28T12:45:46;95891.59;;;18.69
75773;BMP280;64381;0.000;0.000;2023-02-28T12:48:15;95888.09;;;18.68
75773;BMP280;64381;0.000;0.000;2023-02-28T12:50:43;95890.84;;;18.68
75773;BMP280;64381;0.000;0.000;2023-02-28T12:53:31;95891.59;;;18.69
75773;BMP280;64381;0.000;0.000;2023-02-28T12:56:33;95877.22;;;18.70
75773;BMP280;64381;0.000;0.000;2023-02-28T12:59:10;95883.31;;;18.69
75773;BMP280;64381;0.000;0.000;2023-02-28T13:10:02;95886.81;;;18.69
75773;BMP280;64381;0.000;0.000;2023-02-28T13:12:29;95887.00;;;18.71
75773;BMP280;64381;0.000;0.000;2023-02-28T13:15:12;95898.06;;;18.71
75773;BMP280;64381;0.000;0.000;2023-02-28T13:17:41;95888.84;;;18.69
75773;BMP280;64381;0.000;0.000;2023-02-28T13:20:16;95884.97;;;18.72
75773;BMP280;64381;0.000;0.000;2023-02-28T13:22:44;95878.72;;;18.71
75773;BMP280;64381;0.000;0.000;2023-02-28T13:27:51;95886.81;;;18.69
75773;BMP280;64381;0.000;0.000;2023-02-28T13:33:35;95893.59;;;18.68
75773;BMP280;64381;0.000;0.000;2023-02-28T13:36:23;95889.56;;;18.69
75773;BMP280;64381;0.000;0.000;2023-02-28T13:38:54;95890.09;;;18.68
75773;BMP280;64381;0.000;0.000;2023-02-28T13:44:05;95893.06;;;18.70
75773;BMP280;64381;0.000;0.000;2023-02-28T13:46:32;95893.59;;;18.68
75773;BMP280;64381;0.000;0.000;2023-02-28T13:57:27;95893.06;;;18.70
75773;BMP280;64381;0.000;0.000;2023-02-28T14:00:16;95888.59;;;18.67
75773;BMP280;64381;0.000;0.000;2023-02-28T14:03:00;95893.59;;;18.68
75773;BMP280;64381;0.000;0.000;2023-02-28T14:05:32;95893.38;;;18.66
75773;BMP280;64381;0.000;0.000;2023-02-28T14:08:04;95890.09;;;18.68
75773;BMP280;64381;0.000;0.000;2023-02-28T14:10:32;95892.88;;;18.68
75773;BMP280;64381;0.000;0.000;2023-02-28T14:12:59;95889.34;;;18.67
75773;BMP280;64381;0.000;0.000;2023-02-28T14:20:53;95890.84;;;18.68
75773;BMP280;64381;0.000;0.000;2023-02-28T14:26:12;95895.09;;;18.69
75773;BMP280;64381;0.000;0.000;2023-02-28T14:31:29;95885.31;;;18.68
75773;BMP280;64381;0.000;0.000;2023-02-28T14:34:26;95888.09;;;18.68
75773;BMP280;64381;0.000;0.000;2023-02-28T14:36:58;95894.13;;;18.67
75773;BMP280;64381;0.000;0.000;2023-02-28T14:39:27;95892.13;;;18.67
75773;BMP280;64381;0.000;0.000;2023-02-28T14:41:53;95882.34;;;18.66
75773;BMP280;64381;0.000;0.000;2023-02-28T14:44:21;95878.31;;;18.67
75773;BMP280;64381;0.000;0.000;2023-02-28T14:46:49;95881.06;;;18.67
75773;BMP280;64381;0.000;0.000;2023-02-28T14:49:21;95885.84;;;18.67
75773;BMP280;64381;0.000;0.000;2023-02-28T14:51:50;95888.59;;;18.67
75773;BMP280;64381;0.000;0.000;2023-02-28T14:54:16;95886.06;;;18.69
75773;BMP280;64381;0.000;0.000;2023-02-28T14:56:48;95889.34;;;18.67
75773;BMP280;64381;0.000;0.000;2023-02-28T14:59:40;95881.28;;;18.69
75773;BMP280;64381;0.000;0.000;2023-02-28T15:02:20;95883.81;;;18.67
75773;BMP280;64381;0.000;0.000;2023-02-28T15:04:58;95882.56;;;18.68
75773;BMP280;64381;0.000;0.000;2023-02-28T15:07:24;95883.81;;;18.67
75773;BMP280;64381;0.000;0.000;2023-02-28T15:10:27;95887.34;;;18.68
75773;BMP280;64381;0.000;0.000;2023-02-28T15:15:24;95878.31;;;18.67
75773;BMP280;64381;0.000;0.000;2023-02-28T15:17:53;95889.34;;;18.67
75773;BMP280;64381;0.000;0.000;2023-02-28T15:20:22;95885.31;;;18.68
75773;BMP280;64381;0.000;0.000;2023-02-28T15:22:50;95883.81;;;18.67
75773;BMP280;64381;0.000;0.000;2023-02-28T15:25:20;95876.47;;;18.70
75773;BMP280;64381;0.000;0.000;2023-02-28T15:27:52;95883.31;;;18.69
75773;BMP280;64381;0.000;0.000;2023-02-28T15:30:27;95883.31;;;18.69
75773;BMP280;64381;0.000;0.000;2023-02-28T15:35:32;95881.06;;;18.67
75773;BMP280;64381;0.000;0.000;2023-02-28T15:38:00;95878.09;;;18.65
75773;BMP280;64381;0.000;0.000;2023-02-28T15:46:07;95892.34;;;18.69
75773;BMP280;64381;0.000;0.000;2023-02-28T15:48:54;95891.38;;;18.67
75773;BMP280;64381;0.000;0.000;2023-02-28T15:51:34;95889.88;;;18.66
75773;BMP280;64381;0.000;0.000;2023-02-28T15:54:12;95890.63;;;18.66
75773;BMP280;64381;0.000;0.000;2023-02-28T15:56:44;95896.16;;;18.66
75773;BMP280;64381;0.000;0.000;2023-02-28T15:59:19;95893.38;;;18.66
75773;BMP280;64381;0.000;0.000;2023-02-28T16:01:45;95890.63;;;18.66
75773;BMP280;64381;0.000;0.000;2023-02-28T16:04:19;95892.88;;;18.68
75773;BMP280;64381;0.000;0.000;2023-02-28T16:09:24;95892.63;;;18.66
75773;BMP280;64381;0.000;0.000;2023-02-28T16:11:52;95890.63;;;18.66
75773;BMP280;64381;0.000;0.000;2023-02-28T16:14:21;95894.88;;;18.67
75773;BMP280;64381;0.000;0.000;2023-02-28T16:16:49;95892.13;;;18.67
75773;BMP280;64381;0.000;0.000;2023-02-28T16:19:15;95903.16;;;18.67
75773;BMP280;64381;0.000;0.000;2023-02-28T16:21:40;95894.13;;;18.67
75773;BMP280;64381;0.000;0.000;2023-02-28T16:24:06;95894.88;;;18.67
75773;BMP280;64381;0.000;0.000;2023-02-28T16:26:31;95900.41;;;18.67
75773;BMP280;64381;0.000;0.000;2023-02-28T16:28:57;95899.66;;;18.67
75773;BMP280;64381;0.000;0.000;2023-02-28T16:31:22;95904.44;;;18.66
75773;BMP280;64381;0.000;0.000;2023-02-28T16:33:47;95901.16;;;18.68
75773;BMP280;64381;0.000;0.000;2023-02-28T16:36:15;95898.38;;;18.68
75773;BMP280;64381;0.000;0.000;2023-02-28T16:38:41;95896.91;;;18.67
75773;BMP280;64381;0.000;0.000;2023-02-28T16:41:06;95899.66;;;18.67
75773;BMP280;64381;0.000;0.000;2023-02-28T16:43:31;95905.94;;;18.67
75773;BMP280;64381;0.000;0.000;2023-02-28T16:45:57;95916.25;;;18.67